This is the latest recevied weather packets stored in our database for station/object IZ2MHJ-3. If no packets are shown the sender has not sent any weather packets the latest 10 day(s).
| Time | Temp. | Humidity | Pressure | Rain* | Wind** | Luminosity | Snow |
|---|---|---|---|---|---|---|---|
| 1777847085 | 18.33° C | 52% | 1019 hPa | - | - | - | - |
| 1777845885 | 18.33° C | 51% | 1019 hPa | - | - | - | - |
| 1777844685 | 18.89° C | 49% | 1018.9 hPa | - | - | - | - |
| 1777843484 | 19.44° C | 47% | 1018.9 hPa | - | - | - | - |
| 1777842284 | 19.44° C | 47% | 1018.7 hPa | - | - | - | - |
| 1777841084 | 19.44° C | 49% | 1018.7 hPa | - | - | - | - |
| 1777839883 | 20° C | 47% | 1018.5 hPa | - | - | - | - |
| 1777838683 | 20° C | 46% | 1018.4 hPa | - | - | - | - |
| 1777837484 | 20° C | 45% | 1018.3 hPa | - | - | - | - |
| 1777836283 | 21.11° C | 40% | 1018.1 hPa | - | - | - | - |
| 1777835083 | 21.67° C | 38% | 1017.9 hPa | - | - | - | - |
| 1777833882 | 21.67° C | 37% | 1017.8 hPa | - | - | - | - |
| 1777832682 | 22.22° C | 36% | 1017.6 hPa | - | - | - | - |
| 1777831482 | 22.78° C | 35% | 1017.5 hPa | - | - | - | - |
| 1777830281 | 23.33° C | 34% | 1017.3 hPa | - | - | - | - |
| 1777829081 | 23.89° C | 33% | 1017.3 hPa | - | - | - | - |
| 1777827881 | 25° C | 32% | 1017.4 hPa | - | - | - | - |
| 1777826680 | 25.56° C | 30% | 1017.4 hPa | - | - | - | - |
| 1777825480 | 26.11° C | 28% | 1017.5 hPa | - | - | - | - |
| 1777824280 | 26.67° C | 28% | 1017.5 hPa | - | - | - | - |
| 1777823080 | 26.67° C | 30% | 1017.7 hPa | - | - | - | - |
| 1777821879 | 26.67° C | 28% | 1017.8 hPa | - | - | - | - |
| 1777820679 | 26.67° C | 29% | 1018 hPa | - | - | - | - |
| 1777819479 | 27.22° C | 27% | 1018.2 hPa | - | - | - | - |
| 1777818278 | 27.22° C | 27% | 1018.5 hPa | - | - | - | - |
* Rain since midnight (hover to see other rain measurements)
** Current wind speed in m/s (hover to see current wind gust speed)